createdAt,value
2023-03-08T00:01:42.250Z,68.58
2023-03-08T00:06:43.688Z,69.03
2023-03-08T00:11:45.068Z,69.35
2023-03-08T00:16:46.425Z,69.59
2023-03-08T00:21:47.842Z,68.69
2023-03-08T00:26:49.203Z,68.80
2023-03-08T00:31:50.724Z,69.37
2023-03-08T00:36:52.277Z,68.82
2023-03-08T00:41:53.693Z,69.16
2023-03-08T00:46:55.134Z,69.05
2023-03-08T00:51:56.548Z,69.14
2023-03-08T00:56:57.951Z,68.96
2023-03-08T01:02:00.711Z,69.28
2023-03-08T01:07:02.128Z,69.22
2023-03-08T01:12:03.775Z,69.29
2023-03-08T01:17:05.241Z,68.85
2023-03-08T01:22:06.605Z,69.30
2023-03-08T01:27:07.992Z,68.92
2023-03-08T01:32:10.327Z,68.86
2023-03-08T01:37:11.751Z,68.29
2023-03-08T01:42:13.144Z,68.09
2023-03-08T01:47:20.181Z,68.53
2023-03-08T01:52:36.740Z,67.50
2023-03-08T01:57:49.302Z,68.56
2023-03-08T02:02:52.995Z,67.74
2023-03-08T02:07:54.448Z,68.38
2023-03-08T02:12:55.828Z,67.94
2023-03-08T02:17:57.189Z,68.71
2023-03-08T02:23:18.954Z,68.17
2023-03-08T02:28:25.195Z,68.75
2023-03-08T02:33:26.659Z,68.51
2023-03-08T02:38:28.050Z,68.37
2023-03-08T02:43:29.454Z,68.61
2023-03-08T02:48:30.896Z,68.95
2023-03-08T02:53:32.218Z,68.67
2023-03-08T02:58:33.550Z,68.33
2023-03-08T03:03:34.892Z,68.79
2023-03-08T03:08:36.306Z,68.47
2023-03-08T03:13:37.982Z,68.71
2023-03-08T03:18:39.451Z,68.74
2023-03-08T03:23:41.353Z,69.10
2023-03-08T03:28:43.206Z,68.71
2023-03-08T03:33:44.915Z,68.60
2023-03-08T03:38:47.249Z,68.92
2023-03-08T03:43:49.480Z,69.14
2023-03-08T03:48:51.189Z,68.98
2023-03-08T03:53:52.591Z,68.96
2023-03-08T03:58:54.397Z,69.10
2023-03-08T04:03:57.000Z,69.39
2023-03-08T04:09:00.829Z,69.57
2023-03-08T04:14:03.036Z,69.16
2023-03-08T04:19:11.331Z,69.33
2023-03-08T04:24:12.674Z,69.48
2023-03-08T04:29:14.048Z,69.58
2023-03-08T04:34:15.365Z,69.65
2023-03-08T04:39:16.752Z,69.72
2023-03-08T04:44:18.069Z,69.91
2023-03-08T04:49:19.442Z,70.38
2023-03-08T04:54:20.791Z,70.92
2023-03-08T04:59:22.176Z,71.27
2023-03-08T05:04:23.617Z,70.72
2023-03-08T05:09:24.940Z,71.41
2023-03-08T05:14:26.369Z,70.61
2023-03-08T05:19:27.727Z,71.15
2023-03-08T05:24:29.089Z,71.66
2023-03-08T05:29:30.427Z,71.52
2023-03-08T05:34:31.792Z,71.22
2023-03-08T05:39:33.118Z,71.05
2023-03-08T05:44:35.935Z,71.11
2023-03-08T05:49:37.283Z,71.27
2023-03-08T05:54:39.529Z,70.71
2023-03-08T05:59:40.867Z,71.73
2023-03-08T06:04:42.223Z,71.39
2023-03-08T06:09:43.590Z,71.62
2023-03-08T06:14:44.931Z,72.03
2023-03-08T06:19:46.714Z,72.12
2023-03-08T06:24:50.774Z,72.41
2023-03-08T06:29:52.138Z,72.77
2023-03-08T06:34:53.461Z,72.87
2023-03-08T06:39:54.801Z,72.96
2023-03-08T06:44:56.160Z,73.14
2023-03-08T06:49:57.531Z,73.14
2023-03-08T06:54:58.845Z,73.18
2023-03-08T07:00:00.232Z,72.90
2023-03-08T07:05:01.683Z,72.82
2023-03-08T07:10:03.992Z,73.17
2023-03-08T07:15:14.735Z,73.22
2023-03-08T07:20:18.374Z,73.49
2023-03-08T07:25:21.189Z,73.82
2023-03-08T07:30:23.129Z,73.93
2023-03-08T07:35:24.544Z,73.35
2023-03-08T07:40:25.897Z,73.52
2023-03-08T07:45:27.264Z,73.38
2023-03-08T07:50:28.642Z,73.71
2023-03-08T07:55:30.157Z,74.04
2023-03-08T08:00:31.508Z,74.06
2023-03-08T08:05:35.491Z,74.16
2023-03-08T08:10:36.905Z,74.03
2023-03-08T08:15:38.311Z,74.25
2023-03-08T08:20:39.675Z,73.91
2023-03-08T08:25:41.023Z,74.20
2023-03-08T08:30:42.391Z,73.86
2023-03-08T08:35:43.808Z,74.47
2023-03-08T08:40:45.300Z,74.92
2023-03-08T08:45:49.104Z,74.14
2023-03-08T08:50:51.631Z,74.30
2023-03-08T08:55:53.037Z,74.19
2023-03-08T09:00:54.363Z,74.10
2023-03-08T09:05:57.987Z,74.06
2023-03-08T09:11:04.585Z,73.48
2023-03-08T09:16:06.403Z,73.54
2023-03-08T09:21:07.784Z,73.94
2023-03-08T09:26:09.257Z,73.79
2023-03-08T09:31:14.934Z,73.92
2023-03-08T09:36:16.662Z,73.99
2023-03-08T09:41:30.771Z,74.15
2023-03-08T09:46:46.205Z,73.82
2023-03-08T09:51:52.842Z,74.57
2023-03-08T09:56:56.198Z,74.14
2023-03-08T10:02:14.794Z,74.19
2023-03-08T10:07:45.452Z,74.73
2023-03-08T10:13:03.784Z,74.17
2023-03-08T10:18:24.772Z,74.50
2023-03-08T10:23:29.400Z,74.37
2023-03-08T10:28:30.742Z,74.40
2023-03-08T10:33:35.239Z,74.26
2023-03-08T10:38:37.284Z,74.71
2023-03-08T10:43:46.627Z,74.60
2023-03-08T10:48:48.351Z,74.56
2023-03-08T10:54:02.579Z,74.85
2023-03-08T10:59:06.229Z,75.05
2023-03-08T11:04:21.151Z,75.03
2023-03-08T11:09:31.264Z,74.87
2023-03-08T11:14:32.723Z,75.25
2023-03-08T11:19:49.130Z,75.37
2023-03-08T11:25:19.364Z,75.13
2023-03-08T11:31:05.236Z,74.84
2023-03-08T11:36:32.933Z,74.75
2023-03-08T11:41:51.536Z,74.88
2023-03-08T11:47:26.258Z,74.39
2023-03-08T11:52:44.718Z,74.75
2023-03-08T11:57:54.820Z,74.36
2023-03-08T12:03:03.204Z,74.91
2023-03-08T12:08:13.561Z,74.82
2023-03-08T12:13:22.690Z,74.82
2023-03-08T12:18:39.039Z,75.09
2023-03-08T12:24:05.330Z,74.60
2023-03-08T12:29:18.514Z,74.59
2023-03-08T12:34:38.184Z,74.53
2023-03-08T12:39:40.454Z,74.42
2023-03-08T12:44:42.825Z,74.41
2023-03-08T12:49:49.390Z,75.70
2023-03-08T12:55:19.250Z,75.79
2023-03-08T13:00:20.907Z,75.81
2023-03-08T13:05:33.209Z,75.71
2023-03-08T13:10:38.968Z,76.41
2023-03-08T13:15:40.428Z,76.37
2023-03-08T13:20:59.370Z,76.30
2023-03-08T13:26:06.545Z,76.20
2023-03-08T13:31:10.882Z,76.54
2023-03-08T13:36:32.712Z,76.29
2023-03-08T13:41:43.614Z,76.59
2023-03-08T13:46:46.354Z,76.58
2023-03-08T13:51:51.707Z,77.00
2023-03-08T13:56:54.289Z,76.76
2023-03-08T14:01:56.171Z,77.06
2023-03-08T14:06:59.951Z,77.11
2023-03-08T14:12:05.064Z,77.03
2023-03-08T14:17:06.704Z,77.20
2023-03-08T14:22:28.622Z,77.10
2023-03-08T14:27:40.926Z,76.74
2023-03-08T14:32:56.814Z,76.89
2023-03-08T14:37:58.862Z,77.43
2023-03-08T14:43:04.545Z,76.77
2023-03-08T14:48:18.227Z,76.61
2023-03-08T14:53:29.082Z,76.63
2023-03-08T14:58:32.672Z,77.02
2023-03-08T15:03:34.355Z,76.70
2023-03-08T15:08:36.190Z,76.41
2023-03-08T15:13:37.516Z,76.91
2023-03-08T15:18:38.951Z,76.28
2023-03-08T15:23:42.788Z,77.05
2023-03-08T15:28:44.147Z,77.91
2023-03-08T15:33:45.591Z,76.58
2023-03-08T15:38:47.003Z,77.50
2023-03-08T15:43:48.537Z,77.37
2023-03-08T15:48:51.104Z,77.05
2023-03-08T15:53:52.788Z,77.05
2023-03-08T15:58:55.220Z,77.34
2023-03-08T16:03:57.387Z,77.04
2023-03-08T16:08:59.068Z,76.84
2023-03-08T16:14:00.447Z,76.56
2023-03-08T16:19:02.568Z,75.82
2023-03-08T16:24:04.286Z,76.62
2023-03-08T16:29:05.695Z,76.25
2023-03-08T16:34:07.438Z,75.78
2023-03-08T16:39:09.226Z,76.04
2023-03-08T16:44:21.228Z,76.10
2023-03-08T16:49:28.031Z,75.94
2023-03-08T16:54:29.402Z,75.57
2023-03-08T16:59:31.189Z,75.66
2023-03-08T17:04:32.556Z,76.08
2023-03-08T17:09:35.473Z,76.71
2023-03-08T17:14:37.421Z,77.89
2023-03-08T17:19:40.860Z,77.27
2023-03-08T17:24:42.509Z,76.83
2023-03-08T17:29:43.876Z,76.15
2023-03-08T17:34:45.515Z,76.56
2023-03-08T17:39:46.878Z,76.62
2023-03-08T17:44:48.303Z,76.68
2023-03-08T17:49:49.684Z,76.85
2023-03-08T17:54:51.081Z,76.44
2023-03-08T17:59:53.590Z,76.36
2023-03-08T18:04:55.911Z,76.23
2023-03-08T18:09:57.373Z,76.79
2023-03-08T18:15:01.111Z,76.67
2023-03-08T18:20:05.269Z,77.44
2023-03-08T18:25:06.994Z,76.90
2023-03-08T18:30:09.575Z,76.56
2023-03-08T18:35:13.215Z,76.43
2023-03-08T18:40:15.030Z,76.11
2023-03-08T18:45:18.151Z,76.26
2023-03-08T18:50:19.852Z,76.42
2023-03-08T18:55:21.195Z,76.31
2023-03-08T19:00:22.737Z,76.54
2023-03-08T19:05:24.088Z,77.56
2023-03-08T19:10:25.460Z,77.38
2023-03-08T19:15:27.214Z,77.30
2023-03-08T19:20:29.366Z,77.11
2023-03-08T19:25:35.536Z,77.29
2023-03-08T19:30:37.031Z,76.44
2023-03-08T19:35:38.691Z,76.21
2023-03-08T19:40:43.551Z,76.98
2023-03-08T19:45:48.860Z,76.76
2023-03-08T19:50:50.343Z,76.72
2023-03-08T19:55:53.767Z,77.21
2023-03-08T20:01:02.912Z,77.62
2023-03-08T20:06:05.063Z,77.08
2023-03-08T20:11:06.545Z,77.16
2023-03-08T20:16:08.022Z,77.08
2023-03-08T20:21:09.549Z,77.50
2023-03-08T20:26:11.414Z,77.13
2023-03-08T20:31:13.423Z,77.10
2023-03-08T20:36:15.592Z,76.71
2023-03-08T20:41:19.821Z,76.37
2023-03-08T20:46:23.888Z,76.60
2023-03-08T20:51:25.795Z,77.23
2023-03-08T20:56:27.281Z,76.64
2023-03-08T21:01:31.549Z,77.12
2023-03-08T21:06:33.114Z,76.78
2023-03-08T21:11:34.585Z,77.50
2023-03-08T21:16:36.256Z,77.43
2023-03-08T21:21:40.639Z,77.38
2023-03-08T21:26:42.603Z,76.79
2023-03-08T21:31:48.447Z,77.71
2023-03-08T21:36:49.928Z,77.71
2023-03-08T21:41:52.918Z,76.85
2023-03-08T21:46:55.376Z,77.69
2023-03-08T21:51:58.198Z,78.12
2023-03-08T21:56:59.833Z,77.33
2023-03-08T22:02:01.374Z,77.52
2023-03-08T22:07:02.983Z,77.52
2023-03-08T22:12:04.569Z,77.67
2023-03-08T22:17:07.128Z,77.26
2023-03-08T22:22:10.331Z,77.47
2023-03-08T22:27:13.032Z,77.35
2023-03-08T22:32:15.541Z,77.37
2023-03-08T22:37:16.949Z,77.29
2023-03-08T22:42:18.478Z,77.27
2023-03-08T22:47:20.046Z,77.25
2023-03-08T22:52:21.451Z,77.74
2023-03-08T22:57:22.859Z,77.44
2023-03-08T23:02:24.728Z,77.43
2023-03-08T23:07:26.079Z,77.63
2023-03-08T23:12:27.415Z,76.98
2023-03-08T23:17:28.800Z,77.25
2023-03-08T23:22:30.168Z,77.17
2023-03-08T23:27:31.519Z,77.15
2023-03-08T23:32:33.101Z,77.34
2023-03-08T23:37:34.807Z,76.92
2023-03-08T23:42:36.735Z,77.17
2023-03-08T23:47:38.130Z,77.16
2023-03-08T23:52:39.449Z,77.27
2023-03-08T23:57:40.821Z,76.85
